地図

経路データ

SID SEASON NUMBER BASIN SUBBASIN NAME ISO_TIME NATURE LAT LON WMO_WIND WMO_PRES WMO_AGENCY TRACK_TYPE DIST2LAND LANDFALL IFLAG USA_AGENCY USA_ATCF_ID USA_LAT USA_LON USA_RECORD USA_STATUS USA_WIND USA_PRES USA_SSHS USA_R34_NE USA_R34_SE USA_R34_SW USA_R34_NW USA_R50_NE USA_R50_SE USA_R50_SW USA_R50_NW USA_R64_NE USA_R64_SE USA_R64_SW USA_R64_NW USA_POCI USA_ROCI USA_RMW USA_EYE TOKYO_LAT TOKYO_LON TOKYO_GRADE TOKYO_WIND TOKYO_PRES TOKYO_R50_DIR TOKYO_R50_LONG TOKYO_R50_SHORT TOKYO_R30_DIR TOKYO_R30_LONG TOKYO_R30_SHORT TOKYO_LAND CMA_LAT CMA_LON CMA_CAT CMA_WIND CMA_PRES HKO_LAT HKO_LON HKO_CAT HKO_WIND HKO_PRES NEWDELHI_LAT NEWDELHI_LON NEWDELHI_GRADE NEWDELHI_WIND NEWDELHI_PRES NEWDELHI_CI NEWDELHI_DP NEWDELHI_POCI REUNION_LAT REUNION_LON REUNION_TYPE REUNION_WIND REUNION_PRES REUNION_TNUM REUNION_CI REUNION_RMW REUNION_R34_NE REUNION_R34_SE REUNION_R34_SW REUNION_R34_NW REUNION_R50_NE REUNION_R50_SE REUNION_R50_SW REUNION_R50_NW REUNION_R64_NE REUNION_R64_SE REUNION_R64_SW REUNION_R64_NW BOM_LAT BOM_LON BOM_TYPE BOM_WIND BOM_PRES BOM_TNUM BOM_CI BOM_RMW BOM_R34_NE BOM_R34_SE BOM_R34_SW BOM_R34_NW BOM_R50_NE BOM_R50_SE BOM_R50_SW BOM_R50_NW BOM_R64_NE BOM_R64_SE BOM_R64_SW BOM_R64_NW BOM_ROCI BOM_POCI BOM_EYE BOM_POS_METHOD BOM_PRES_METHOD NADI_LAT NADI_LON NADI_CAT NADI_WIND NADI_PRES WELLINGTON_LAT WELLINGTON_LON WELLINGTON_WIND WELLINGTON_PRES DS824_LAT DS824_LON DS824_STAGE DS824_WIND DS824_PRES TD9636_LAT TD9636_LON TD9636_STAGE TD9636_WIND TD9636_PRES TD9635_LAT TD9635_LON TD9635_WIND TD9635_PRES TD9635_ROCI NEUMANN_LAT NEUMANN_LON NEUMANN_CLASS NEUMANN_WIND NEUMANN_PRES MLC_LAT MLC_LON MLC_CLASS MLC_WIND MLC_PRES USA_GUST BOM_GUST BOM_GUST_PER REUNION_GUST REUNION_GUST_PER USA_SEAHGT USA_SEARAD_NE USA_SEARAD_SE USA_SEARAD_SW USA_SEARAD_NW STORM_SPEED STORM_DIR
2005148N06156 2005 30 WP MM NESAT 2005-05-27 12:00:00 NR 5.70000 156.300 main 1111 1085 O_____________ jtwc_wp WP042005 5.70000 156.300 DB 15 1006 -3 6 259
2005148N06156 2005 30 WP MM NESAT 2005-05-27 15:00:00 NR 5.64504 156.003 main 1085 1070 P_____________ WP042005 5.64504 156.003 DB 15 1006 -3 6 260
2005148N06156 2005 30 WP MM NESAT 2005-05-27 18:00:00 NR 5.60000 155.700 main 1070 1056 O_____________ jtwc_wp WP042005 5.60000 155.700 DB 15 1006 -3 6 264
2005148N06156 2005 30 WP MM NESAT 2005-05-27 21:00:00 NR 5.57745 155.380 main 1056 1035 P_____________ WP042005 5.57745 155.380 DB 15 1006 -3 7 270
2005148N06156 2005 30 WP MM NESAT 2005-05-28 00:00:00 NR 5.60000 155.000 main 1035 1017 O_____________ jtwc_wp WP042005 5.60000 155.000 DB 15 1006 -3 9 276
2005148N06156 2005 30 WP MM NESAT 2005-05-28 03:00:00 NR 5.66251 154.522 main 1022 1010 P_____________ WP042005 5.66251 154.522 DB 15 1006 -3 10 281
2005148N06156 2005 30 WP MM NESAT 2005-05-28 06:00:00 NR 5.80000 154.000 main 1012 1009 O_____________ jtwc_wp WP042005 5.80000 154.000 DB 15 1006 -3 1008 120 40 11 289
2005148N06156 2005 30 WP MM NESAT 2005-05-28 09:00:00 NR 6.01248 153.492 main 1016 1013 P_____________ WP042005 6.01248 153.492 DB 15 1006 -3 11 297
2005148N06156 2005 30 WP MM NESAT 2005-05-28 12:00:00 NR 6.30000 153.000 main 1035 1032 O_____________ jtwc_wp WP042005 6.30000 153.000 DB 15 1006 -3 11 304
2005148N06156 2005 30 WP MM NESAT 2005-05-28 15:00:00 NR 6.64994 152.543 main 1057 1057 P_____________ WP042005 6.64994 152.543 DB 15 1006 -3 11 308
2005148N06156 2005 30 WP MM NESAT 2005-05-28 18:00:00 NR 7.00000 152.100 main 1095 1093 O_____________ jtwc_wp WP042005 7.00000 152.100 DB 15 1006 -3 11 305
2005148N06156 2005 30 WP MM NESAT 2005-05-28 21:00:00 NR 7.26498 151.642 main 1123 1122 P_____________ WP042005 7.26498 151.642 DB 17 1005 -3 10 299
2005148N06156 2005 30 WP MM NESAT 2005-05-29 00:00:00 TS 7.50000 151.200 main 1143 1143 O_____________ jtwc_wp WP042005 7.50000 151.200 TD 20 1004 -1 10 300
2005148N06156 2005 30 WP MM NESAT 2005-05-29 03:00:00 TS 7.74994 150.792 main 1161 1161 P_____________ WP042005 7.74994 150.792 TD 20 1004 -1 9 302
2005148N06156 2005 30 WP MM NESAT 2005-05-29 06:00:00 TS 8.00000 150.400 main 1179 1176 O_____________ jtwc_wp WP042005 8.00000 150.400 TD 20 1004 -1 9 303
2005148N06156 2005 30 WP MM NESAT 2005-05-29 09:00:00 TS 8.26496 150.000 main 1200 1197 P_____________ WP042005 8.26496 150.000 TD 20 1004 -1 9 302
2005148N06156 2005 30 WP MM NESAT 2005-05-29 12:00:00 TS 8.50000 149.600 main 1212 1210 O_____________ jtwc_wp WP042005 8.50000 149.600 TD 20 1004 -1 9 297
2005148N06156 2005 30 WP MM NESAT 2005-05-29 15:00:00 TS 8.66498 149.192 main 1226 1223 P_____________ WP042005 8.66498 149.192 TD 20 1004 -1 8 291
2005148N06156 2005 30 WP MM NESAT 2005-05-29 18:00:00 TS 8.80000 148.800 main 1231 1229 O_____________ jtwc_wp WP042005 8.80000 148.800 TD 20 1004 -1 8 291
2005148N06156 2005 30 WP MM NESAT 2005-05-29 21:00:00 TS 8.95748 148.428 main 1248 1246 P_____________ WP042005 8.95748 148.428 TD 22 1003 -1 6 286
2005148N06156 2005 30 WP MM NESAT 2005-05-30 00:00:00 TS 8.96667 148.200 1008 tokyo main 1246 1245 OOO___________ jtwc_wp WP042005 9.10000 148.100 TD 25 1002 -1 1009 80 50 8.70000 148.400 2 1008 0 0 0 8.70000 148.400 1 23 1008 6 280
2005148N06156 2005 30 WP MM NESAT 2005-05-30 03:00:00 TS 9.06384 147.829 main 1255 1255 PPP___________ WP042005 9.20743 147.842 TD 27 1001 -1 8.92024 147.815 2 1007 0 0 8.92024 147.815 1 23 1007 8 285
2005148N06156 2005 30 WP MM NESAT 2005-05-30 06:00:00 TS 9.18000 147.420 1006 tokyo main 1266 1266 OOO___________ jtwc_wp WP042005 9.30000 147.600 TD 30 1000 -1 9.10000 147.300 2 1006 0 0 0 9.10000 147.300 1 23 1006 35 8 285
2005148N06156 2005 30 WP MM NESAT 2005-05-30 09:00:00 TS 9.27660 147.037 main 1277 1277 PPP___________ WP042005 9.40001 147.300 TD 30 1000 -1 9.21490 146.905 2 1006 0 0 9.21490 146.905 1 23 1006 7 285
2005148N06156 2005 30 WP MM NESAT 2005-05-30 12:00:00 TS 9.36667 146.733 1006 tokyo main 1288 1288 OOO___________ jtwc_wp WP042005 9.50000 147.000 TD 30 1000 -1 9.30000 146.600 2 1006 0 0 0 9.30000 146.600 1 23 1006 40 6 289
2005148N06156 2005 30 WP MM NESAT 2005-05-30 15:00:00 TS 9.46662 146.471 main 1299 1299 PPP___________ WP042005 9.59996 146.742 TD 32 998 -1 9.39995 146.335 2 1005 0 0 9.39995 146.335 1 26 1005 6 293
2005148N06156 2005 30 WP MM NESAT 2005-05-30 18:00:00 TS 9.58462 146.215 1004 tokyo main 1311 1311 OOOO__________ jtwc_wp WP042005 9.70000 146.500 TS 35 997 0 9.50000 146.100 2 1004 0 0 0 9.50000 146.100 1 29 1004 9.80000 146.000 TD 25 1002 45 5 294
2005148N06156 2005 30 WP MM NESAT 2005-05-30 21:00:00 TS 9.69141 145.966 main 1323 1323 PPPP__________ WP042005 9.79250 146.242 TS 35 997 0 9.59996 145.857 2 1004 0 0 9.59996 145.857 1 29 1004 9.85503 145.845 TD 25 1002 5 293
2005148N06156 2005 30 WP MM NESAT 2005-05-31 00:00:00 TS 9.79333 145.727 1004 tokyo main 1337 1337 OOOO__________ jtwc_wp WP042005 9.90000 146.000 TS 35 997 0 9.70000 145.600 2 1004 0 0 0 9.70000 145.600 1 29 1004 9.90000 145.700 TD 25 1002 45 5 293
2005148N06156 2005 30 WP MM NESAT 2005-05-31 03:00:00 TS 9.88872 145.499 main 1350 1350 PPPP__________ WP042005 10.0499 145.815 TS 35 997 0 9.78499 145.307 2 1003 0 0 9.78499 145.307 1 29 1003 9.93497 145.565 TD 27 1001 5 294
2005148N06156 2005 30 WP MM NESAT 2005-05-31 06:00:00 TS 10.0000 145.250 1002 tokyo main 1363 1363 OOOO__________ jtwc_wp WP042005 10.2000 145.600 TS 35 997 0 9.90000 145.000 2 1002 0 0 0 9.90000 145.000 1 29 1002 10.0000 145.400 TD 30 1000 45 6 298
2005148N06156 2005 30 WP MM NESAT 2005-05-31 09:00:00 TS 10.1643 144.967 main 1389 1389 PPPP__________ WP042005 10.3075 145.287 TS 35 997 0 10.1000 144.708 2 1001 0 0 10.1000 144.708 1 31 1001 10.1500 145.165 TD 30 1000 7 299
2005148N06156 2005 30 WP MM NESAT 2005-05-31 12:00:00 TS 10.3250 144.650 35 1000 tokyo main 1405 1406 OOOO__________ jtwc_wp WP042005 10.4000 144.900 TS 35 997 0 10.3000 144.400 3 35 1000 0 8 80 40 0 10.3000 144.400 2 34 1000 10.3000 144.900 TD 30 1000 45 7 293
2005148N06156 2005 30 WP MM NESAT 2005-05-31 15:00:00 TS 10.4236 144.334 main 1423 1423 PPPP__________ WP042005 10.5149 144.480 TS 37 995 0 10.4074 144.072 3 40 997 0 8 100 50 10.4074 144.072 2 39 997 10.3648 144.710 TD 32 998 7 284
2005148N06156 2005 30 WP MM NESAT 2005-05-31 18:00:00 TS 10.5000 143.950 45 994 tokyo main 1440 1440 OOOO__________ jtwc_wp WP042005 10.6000 144.000 TS 40 994 0 60 45 45 60 10.5000 143.700 3 45 994 0 8 120 60 0 10.5000 143.700 2 44 995 10.4000 144.400 TS 35 996 50 9 282
2005148N06156 2005 30 WP MM NESAT 2005-05-31 21:00:00 TS 10.5987 143.470 main 1463 1463 PPPP__________ WP042005 10.6074 143.480 TS 45 990 0 65 45 45 65 10.6724 143.288 3 47 989 0 8 130 65 10.6724 143.288 2 46 992 10.4426 143.825 TS 37 994 10 280
2005148N06156 2005 30 WP MM NESAT 2005-06-01 00:00:00 TS 10.6750 142.900 50 985 tokyo main 1473 1451 OOOO__________ jtwc_wp WP042005 10.6000 142.900 TS 50 987 0 70 45 45 70 10.8000 142.800 4 50 985 0 8 140 70 0 10.8000 142.800 3 48 990 10.5000 143.100 TS 40 992 65 12 275
2005148N06156 2005 30 WP MM NESAT 2005-06-01 03:00:00 TS 10.7007 142.256 main 1451 1428 PPPP__________ WP042005 10.6425 142.258 TS 57 981 0 70 47 47 70 10.7800 142.215 4 55 980 0 8 140 80 10.7725 142.215 3 51 987 10.6076 142.335 TS 42 990 13 271
2005148N06156 2005 30 WP MM NESAT 2005-06-01 06:00:00 TS 10.7000 141.600 60 975 tokyo main 1428 1406 OOOO__________ jtwc_wp WP042005 10.7000 141.600 TY 65 976 1 70 50 50 70 25 25 25 25 10.7000 141.600 4 60 975 9 40 40 8 140 90 0 10.7000 141.600 3 54 985 10.7000 141.600 TS 45 988 70 12 270
2005148N06156 2005 30 WP MM NESAT 2005-06-01 09:00:00 TS 10.6924 141.011 main 1406 1385 PPPP__________ WP042005 10.7499 140.978 TY 70 971 1 70 50 50 70 25 25 25 25 10.6349 141.027 4 65 970 9 45 45 8 140 95 10.6774 141.027 3 59 980 10.7073 141.012 TS 47 986 11 270
2005148N06156 2005 30 WP MM NESAT 2005-06-01 12:00:00 TS 10.7000 140.475 70 965 tokyo main 1385 1366 OOOO__________ jtwc_wp WP042005 10.8000 140.400 TY 75 967 1 70 50 50 70 25 25 25 25 15 15 15 15 10.6000 140.500 5 70 965 9 50 50 1 140 100 0 10.7000 140.500 4 64 975 10.7000 140.500 STS 50 984 80 10 273
2005148N06156 2005 30 WP MM NESAT 2005-06-01 15:00:00 TS 10.7361 139.994 main 1366 1362 PPPP__________ WP042005 10.8423 139.885 TY 82 960 1 75 55 55 75 30 30 30 30 20 20 20 20 10.6048 140.050 5 72 960 9 55 55 1 145 100 10.7773 140.050 4 66 972 10.7199 139.992 STS 55 979 9 278
2005148N06156 2005 30 WP MM NESAT 2005-06-01 18:00:00 TS 10.8250 139.525 75 955 tokyo main 1358 1355 OOOO__________ jtwc_wp WP042005 10.9000 139.400 TY 90 954 2 80 60 60 80 35 35 35 35 25 25 25 25 10.7000 139.600 5 75 955 9 60 60 1 150 100 0 10.9000 139.600 4 68 970 10.8000 139.500 STS 60 975 110 10 285
2005148N06156 2005 30 WP MM NESAT 2005-06-01 21:00:00 TS 10.9906 139.009 main 1363 1360 PPPP__________ WP042005 10.9849 138.900 TY 100 943 3 85 70 70 85 37 37 37 37 27 27 27 27 10.9350 139.065 5 77 950 9 62 62 1 155 100 11.0500 139.065 4 72 965 10.9924 139.008 STS 65 970 11 289
2005148N06156 2005 30 WP MM NESAT 2005-06-02 00:00:00 TS 11.1750 138.475 80 945 tokyo main 1363 1312 OOOO__________ jtwc_wp WP042005 11.1000 138.400 TY 110 933 3 90 80 80 90 40 40 40 40 30 30 30 30 11.2000 138.500 5 80 945 9 65 65 1 160 100 0 11.2000 138.500 4 77 960 11.2000 138.500 T 70 965 140 11 287
2005148N06156 2005 30 WP MM NESAT 2005-06-02 03:00:00 TS 11.3037 137.939 main 1301 1250 PPPP__________ WP042005 11.2349 137.907 TY 112 930 3 95 85 85 95 40 40 40 40 30 30 30 30 11.3724 137.950 5 82 942 9 67 67 1 165 100 11.2999 137.950 4 77 960 11.3075 137.950 T 75 960 11 283
2005148N06156 2005 30 WP MM NESAT 2005-06-02 06:00:00 TS 11.4250 137.400 85 940 tokyo main 1250 1199 OOOO__________ jtwc_wp WP042005 11.4000 137.400 TY 115 927 4 100 90 90 100 40 40 40 40 30 30 30 30 11.5000 137.400 5 85 940 9 70 70 1 170 100 0 11.4000 137.400 4 77 960 11.4000 137.400 T 80 955 140 11 284
2005148N06156 2005 30 WP MM NESAT 2005-06-02 09:00:00 TS 11.5693 136.853 main 1201 1150 PPPP__________ WP042005 11.6075 136.850 TY 115 927 4 100 90 90 100 40 40 40 40 30 30 30 30 11.5925 136.835 5 87 937 9 70 70 1 175 100 11.5350 136.835 4 82 955 11.5424 136.892 T 82 952 11 286
2005148N06156 2005 30 WP MM NESAT 2005-06-02 12:00:00 TS 11.7250 136.325 90 935 tokyo main 1140 1103 OOOO__________ jtwc_wp WP042005 11.8000 136.300 TY 115 927 4 100 90 90 100 40 40 40 40 30 30 30 30 11.7000 136.300 5 90 935 9 70 70 1 180 100 0 11.7000 136.300 5 87 950 11.7000 136.400 ST 85 950 140 10 288
2005148N06156 2005 30 WP MM NESAT 2005-06-02 15:00:00 TS 11.8911 135.842 main 1092 1052 PPPP__________ WP042005 11.8999 135.785 TY 112 930 3 100 90 90 100 40 40 40 40 30 30 30 30 11.8998 135.843 5 90 935 9 70 70 1 180 100 11.9073 135.843 5 87 950 11.8574 135.900 ST 85 950 10 289
2005148N06156 2005 30 WP MM NESAT 2005-06-02 18:00:00 TS 12.0500 135.375 90 935 tokyo main 1053 999 OOOO__________ jtwc_wp WP042005 12.0000 135.300 TY 110 933 3 100 90 90 100 40 40 40 40 30 30 30 30 12.1000 135.400 5 90 935 9 70 70 1 180 100 0 12.1000 135.400 5 87 950 12.0000 135.400 ST 85 950 135 10 285
2005148N06156 2005 30 WP MM NESAT 2005-06-02 21:00:00 TS 12.1488 134.870 main 999 948 PPPP__________ WP042005 12.1624 134.835 TY 107 935 3 97 87 87 97 40 40 40 40 27 27 27 27 12.1776 134.885 5 90 935 9 75 75 1 175 105 12.1851 134.885 5 87 950 12.0700 134.877 ST 85 950 10 285
2005148N06156 2005 30 WP MM NESAT 2005-06-03 00:00:00 TS 12.3000 134.400 90 935 tokyo main 948 919 OOOO__________ jtwc_wp WP042005 12.4000 134.400 TY 105 938 3 95 85 85 95 40 40 40 40 25 25 25 25 12.3000 134.400 5 90 935 9 80 80 1 170 110 0 12.3000 134.400 5 87 950 12.2000 134.400 ST 85 950 130 9 299
2005148N06156 2005 30 WP MM NESAT 2005-06-03 03:00:00 TS 12.6017 134.039 main 910 885 PPPP__________ WP042005 12.7349 133.993 TY 105 938 3 95 85 85 95 40 40 40 40 25 25 25 25 12.6122 134.057 5 90 935 9 80 80 1 170 110 12.5547 134.057 5 87 950 12.5048 134.050 ST 85 950 10 314
2005148N06156 2005 30 WP MM NESAT 2005-06-03 06:00:00 TS 12.9750 133.675 90 935 tokyo main 888 844 OOOO__________ jtwc_wp WP042005 13.1000 133.600 TY 105 938 3 95 85 85 95 40 40 40 40 25 25 25 25 13.0000 133.700 5 90 935 9 80 80 2 170 110 0 12.9000 133.700 5 87 950 12.9000 133.700 ST 85 950 130 11 312
2005148N06156 2005 30 WP MM NESAT 2005-06-03 09:00:00 TS 13.3582 133.183 main 846 798 PPPP__________ WP042005 13.4224 133.200 TY 105 938 3 92 85 85 92 40 40 40 40 25 25 25 25 13.3727 133.158 5 90 935 9 80 80 2 165 115 13.3152 133.158 5 87 950 13.3226 133.215 ST 87 947 12 307
2005148N06156 2005 30 WP MM NESAT 2005-06-03 12:00:00 TS 13.7000 132.675 90 935 tokyo main 798 750 OOOO__________ jtwc_wp WP042005 13.7000 132.800 TY 105 938 3 90 85 85 90 40 40 40 40 25 25 25 25 13.7000 132.600 5 90 935 9 80 80 2 160 120 0 13.7000 132.600 5 87 950 13.7000 132.700 ST 90 945 130 11 301
2005148N06156 2005 30 WP MM NESAT 2005-06-03 15:00:00 TS 13.9225 132.223 main 750 725 PPPP__________ WP042005 13.9150 132.392 TY 115 927 4 95 92 92 95 42 42 42 42 25 25 25 25 13.9149 132.147 5 90 935 9 80 80 2 170 120 13.9224 132.147 5 87 950 13.9375 132.205 ST 92 942 9 297
2005148N06156 2005 30 WP MM NESAT 2005-06-03 18:00:00 TS 14.1000 131.850 90 935 tokyo main 714 697 OOOO__________ jtwc_wp WP042005 14.1000 132.000 TY 125 916 4 100 100 100 100 45 45 45 45 25 25 25 25 14.1000 131.800 5 90 935 9 80 80 2 180 120 0 14.1000 131.800 5 87 950 14.1000 131.800 ST 95 940 160 7 301
2005148N06156 2005 30 WP MM NESAT 2005-06-03 21:00:00 TS 14.2974 131.582 main 701 684 PPPP__________ WP042005 14.2850 131.627 TY 125 916 4 100 100 100 100 45 45 45 45 25 25 25 25 14.3349 131.570 5 92 932 9 80 80 2 190 130 14.3424 131.570 5 92 945 14.2273 131.562 ST 97 937 6 313
2005148N06156 2005 30 WP MM NESAT 2005-06-04 00:00:00 TS 14.5250 131.375 95 930 tokyo main 688 677 OOOO__________ jtwc_wp WP042005 14.5000 131.300 TY 125 916 4 100 100 100 100 45 45 45 45 25 25 25 25 14.6000 131.400 5 95 930 9 80 80 2 200 140 0 14.6000 131.400 5 97 940 14.4000 131.400 SuperT 100 935 150 7 321
2005148N06156 2005 30 WP MM NESAT 2005-06-04 03:00:00 TS 14.8081 131.153 main 681 672 PPPP__________ WP042005 14.7700 131.013 TY 125 916 4 100 100 100 100 45 45 45 45 25 25 25 25 14.9000 131.200 5 95 930 9 80 80 2 200 140 14.8425 131.200 5 97 940 14.7200 131.200 SuperT 100 935 7 326
2005148N06156 2005 30 WP MM NESAT 2005-06-04 06:00:00 TS 15.1250 130.950 95 930 tokyo main 677 667 OOOO__________ jtwc_wp WP042005 15.1000 130.800 TY 125 916 4 100 100 100 100 45 45 45 45 25 25 25 25 15.2000 131.000 5 95 930 9 80 80 2 200 140 0 15.1000 131.000 5 97 940 15.1000 131.000 SuperT 100 935 150 7 329
2005148N06156 2005 30 WP MM NESAT 2005-06-04 09:00:00 TS 15.4425 130.756 main 675 672 PPPP__________ WP042005 15.4850 130.670 TY 125 916 4 100 107 107 100 47 47 47 47 25 25 25 25 15.4425 130.785 5 95 930 9 80 80 2 200 140 15.3850 130.785 5 97 940 15.4575 130.785 SuperT 100 935 7 333
2005148N06156 2005 30 WP MM NESAT 2005-06-04 12:00:00 TS 15.7750 130.600 95 930 tokyo main 682 680 OOOO__________ jtwc_wp WP042005 15.9000 130.600 TY 125 916 4 100 115 115 100 50 50 50 50 25 25 25 25 15.7000 130.600 5 95 930 9 80 80 2 200 140 0 15.7000 130.600 5 97 940 15.8000 130.600 SuperT 100 935 140 7 339
2005148N06156 2005 30 WP MM NESAT 2005-06-04 15:00:00 TS 16.1062 130.483 main 693 693 PPPP__________ WP042005 16.2925 130.528 TY 120 921 4 90 115 115 90 42 50 50 42 22 25 25 22 16.0200 130.470 5 92 935 9 70 70 2 190 130 16.0275 130.470 5 92 945 16.0850 130.462 SuperT 97 937 7 347
2005148N06156 2005 30 WP MM NESAT 2005-06-04 18:00:00 TS 16.4750 130.425 90 940 tokyo main 706 706 OOOO__________ jtwc_wp WP042005 16.7000 130.500 TY 115 927 4 80 115 115 80 35 50 50 35 20 25 25 20 16.4000 130.400 5 90 940 9 60 60 2 180 120 0 16.4000 130.400 5 87 950 16.4000 130.400 ST 95 940 135 8 355
2005148N06156 2005 30 WP MM NESAT 2005-06-04 21:00:00 TS 16.9193 130.413 main 725 725 PPPP__________ WP042005 17.1575 130.520 TY 110 932 3 80 115 115 80 35 50 50 35 20 25 25 20 16.8424 130.348 5 87 942 9 60 60 2 170 120 16.8425 130.363 5 87 950 16.8350 130.420 ST 92 942 9 2
2005148N06156 2005 30 WP MM NESAT 2005-06-05 00:00:00 TS 17.3750 130.475 85 945 tokyo main 761 761 OOOO__________ jtwc_wp WP042005 17.6000 130.600 TY 105 938 3 80 115 115 80 35 50 50 35 20 25 25 20 17.3000 130.400 5 85 945 9 60 60 2 160 120 0 17.3000 130.400 5 87 950 17.3000 130.500 ST 90 945 130 9 12
2005148N06156 2005 30 WP MM NESAT 2005-06-05 03:00:00 TS 17.7737 130.604 main 794 794 PPPP__________ WP042005 17.9650 130.728 TY 102 941 3 80 107 107 80 35 47 47 35 20 25 25 20 17.7076 130.620 5 85 945 9 60 60 2 160 120 17.7074 130.505 5 87 950 17.7149 130.563 ST 87 947 8 22
2005148N06156 2005 30 WP MM NESAT 2005-06-05 06:00:00 TS 18.1500 130.800 85 945 tokyo main 836 836 OOOO__________ jtwc_wp WP042005 18.3000 130.900 TY 100 944 3 80 100 100 80 35 45 45 35 20 25 25 20 18.1000 130.900 5 85 945 9 60 60 2 160 120 0 18.1000 130.700 5 87 950 18.1000 130.700 ST 85 950 125 9 28
2005148N06156 2005 30 WP MM NESAT 2005-06-05 09:00:00 TS 18.5231 131.022 main 872 872 PPPP__________ WP042005 18.6424 131.070 TY 95 949 2 85 100 95 85 35 42 40 35 20 22 22 20 18.5074 131.085 5 82 947 9 60 60 2 160 120 18.5000 130.970 5 82 955 18.4425 130.963 ST 85 950 9 32
2005148N06156 2005 30 WP MM NESAT 2005-06-05 12:00:00 TS 18.9000 131.300 80 950 tokyo main 924 924 OOOO__________ jtwc_wp WP042005 19.0000 131.300 TY 90 954 2 90 100 90 90 35 40 35 35 20 20 20 20 18.9000 131.300 5 80 950 9 60 60 2 160 120 0 18.9000 131.300 4 77 960 18.8000 131.300 ST 85 950 110 10 38
2005148N06156 2005 30 WP MM NESAT 2005-06-05 15:00:00 TS 19.2907 131.646 main 976 976 PPPP__________ WP042005 19.3926 131.635 TY 92 951 2 90 100 90 90 35 40 35 35 20 20 20 20 19.2351 131.643 5 80 952 9 60 60 2 160 120 19.2926 131.658 4 77 960 19.2425 131.650 ST 85 950 10 40
2005148N06156 2005 30 WP MM NESAT 2005-06-05 18:00:00 TS 19.7000 132.000 80 955 tokyo main 1029 1029 OOOO__________ jtwc_wp WP042005 19.8000 132.000 TY 95 949 2 90 100 90 90 35 40 35 35 20 20 20 20 19.6000 132.000 5 80 955 9 60 60 3 160 120 0 19.7000 132.000 4 77 960 19.7000 132.000 ST 85 950 115 10 34
2005148N06156 2005 30 WP MM NESAT 2005-06-05 21:00:00 TS 20.1485 132.264 main 1066 1066 PPPP__________ WP042005 20.2148 132.293 TY 100 943 3 100 105 95 90 35 40 35 35 20 20 20 20 20.0997 132.235 5 80 955 9 65 65 3 170 120 20.1647 132.235 4 77 960 20.1148 132.293 ST 85 950 10 31
2005148N06156 2005 30 WP MM NESAT 2005-06-06 00:00:00 TS 20.5750 132.550 80 955 tokyo main 1107 1107 OOOO__________ jtwc_wp WP042005 20.6000 132.600 TY 105 938 3 110 110 100 90 35 40 35 35 20 20 20 20 20.6000 132.500 5 80 955 9 70 70 4 180 120 0 20.6000 132.500 4 77 960 20.5000 132.600 ST 85 950 130 10 41
2005148N06156 2005 30 WP MM NESAT 2005-06-06 03:00:00 TS 20.9190 132.982 main 1151 1124 PPPP__________ WP042005 20.9151 133.008 TY 110 932 3 110 110 95 90 37 40 37 37 22 22 22 22 20.9803 132.957 5 82 950 9 70 70 4 205 150 20.9153 132.957 4 82 955 20.8651 133.007 ST 87 947 10 51
2005148N06156 2005 30 WP MM NESAT 2005-06-06 06:00:00 TS 21.2250 133.400 85 945 tokyo main 1127 1099 OOOO__________ jtwc_wp WP042005 21.2000 133.400 TY 115 927 4 110 110 90 90 40 40 40 40 25 25 25 25 21.3000 133.400 5 85 945 9 70 70 4 230 180 0 21.2000 133.400 5 87 950 21.2000 133.400 ST 90 945 140 9 45
2005148N06156 2005 30 WP MM NESAT 2005-06-06 09:00:00 TS 21.5523 133.666 main 1091 1072 PPPP__________ WP042005 21.5074 133.688 TY 115 927 4 110 110 90 90 40 40 40 40 25 25 25 25 21.6223 133.645 5 85 945 9 70 70 4 235 190 21.5648 133.645 5 87 950 21.5149 133.688 ST 90 945 8 34
2005148N06156 2005 30 WP MM NESAT 2005-06-06 12:00:00 TS 21.8500 133.850 85 945 tokyo main 1064 1046 OOOO__________ jtwc_wp WP042005 21.8000 133.900 TY 115 927 4 110 110 90 90 40 40 40 40 25 25 25 25 21.9000 133.800 5 85 945 9 70 70 4 240 200 0 21.9000 133.800 5 87 950 21.8000 133.900 ST 90 945 140 6 33
2005148N06156 2005 30 WP MM NESAT 2005-06-06 15:00:00 TS 22.0769 134.028 main 1046 1028 PPPP__________ WP042005 22.0500 134.088 TY 115 927 4 110 110 90 90 40 40 40 40 27 27 27 27 22.1000 133.973 5 85 945 9 70 70 4 240 200 22.1075 133.973 5 87 950 22.0500 134.080 ST 90 945 5 32
2005148N06156 2005 30 WP MM NESAT 2005-06-06 18:00:00 TS 22.3000 134.150 85 945 tokyo main 1031 1000 OOOO__________ jtwc_wp WP042005 22.3000 134.200 TY 115 927 4 110 110 90 90 40 40 40 40 30 30 30 30 22.3000 134.100 5 85 945 9 70 70 3 240 200 0 22.3000 134.100 5 87 950 22.3000 134.200 ST 90 945 145 5 19
2005148N06156 2005 30 WP MM NESAT 2005-06-06 21:00:00 TS 22.5925 134.219 main 1000 968 PPPP__________ WP042005 22.6000 134.238 TY 110 932 3 107 107 85 85 37 37 37 37 27 27 27 27 22.5850 134.180 5 82 945 9 70 70 3 235 200 22.5850 134.180 5 82 955 22.6000 134.280 ST 87 947 6 7
2005148N06156 2005 30 WP MM NESAT 2005-06-07 00:00:00 TS 22.9000 134.225 80 945 tokyo main 968 937 OOOO__________ jtwc_wp WP042005 22.9000 134.200 TY 105 938 3 105 105 80 80 35 35 35 35 25 25 25 25 22.9000 134.200 5 80 945 9 70 70 3 230 200 0 22.9000 134.200 4 77 960 22.9000 134.300 ST 85 950 130 6 355
2005148N06156 2005 30 WP MM NESAT 2005-06-07 03:00:00 TS 23.1919 134.189 main 937 912 PPPP__________ WP042005 23.1575 134.108 TY 102 941 3 105 105 80 80 35 35 35 35 25 25 25 25 23.2225 134.180 5 80 947 9 70 70 3 230 200 23.2225 134.180 4 77 960 23.1650 134.287 ST 82 952 6 349
2005148N06156 2005 30 WP MM NESAT 2005-06-07 06:00:00 TS 23.4500 134.100 80 950 tokyo main 902 888 OOOO__________ jtwc_wp WP042005 23.4000 134.000 TY 100 944 3 105 105 80 80 35 35 35 35 25 25 25 25 23.5000 134.100 5 80 950 9 70 70 3 230 200 0 23.5000 134.100 4 77 960 23.4000 134.200 T 80 955 125 5 335
2005148N06156 2005 30 WP MM NESAT 2005-06-07 09:00:00 TS 23.6357 133.961 main 888 860 PPPP__________ WP042005 23.6500 133.950 TY 95 949 2 90 105 77 85 32 55 35 35 20 20 20 20 23.6500 133.950 5 80 952 9 65 65 3 240 185 23.6500 133.950 4 77 960 23.5926 133.993 T 80 955 5 326
2005148N06156 2005 30 WP MM NESAT 2005-06-07 12:00:00 TS 23.8250 133.825 80 955 tokyo main 860 825 OOOO__________ jtwc_wp WP042005 23.9000 133.900 TY 90 954 2 75 105 75 90 30 75 35 35 15 15 15 15 23.8000 133.800 5 80 955 9 60 60 2 250 170 0 23.8000 133.800 4 77 960 23.8000 133.800 T 80 955 110 5 337
2005148N06156 2005 30 WP MM NESAT 2005-06-07 15:00:00 TS 24.0975 133.741 main 825 793 PPPP__________ WP042005 24.1425 133.778 TY 90 954 2 87 102 80 87 30 52 32 32 15 15 15 15 24.0775 133.713 5 80 955 9 60 60 2 235 165 24.0775 133.713 4 77 960 24.0925 133.762 T 80 955 6 351
2005148N06156 2005 30 WP MM NESAT 2005-06-07 18:00:00 TS 24.4000 133.725 80 955 tokyo main 793 766 OOOO__________ jtwc_wp WP042005 24.4000 133.700 TY 90 954 2 100 100 85 85 30 30 30 30 15 15 15 15 24.4000 133.700 5 80 955 9 60 60 2 220 160 0 24.4000 133.700 4 77 960 24.4000 133.800 T 80 955 105 6 4
2005148N06156 2005 30 WP MM NESAT 2005-06-07 21:00:00 TS 24.6856 133.775 main 766 739 PPPP__________ WP042005 24.6925 133.755 TY 87 956 2 100 100 85 85 30 30 30 30 15 15 15 15 24.7000 133.762 5 77 955 9 60 60 2 215 155 24.7000 133.762 4 77 960 24.6500 133.820 T 80 955 6 15
2005148N06156 2005 30 WP MM NESAT 2005-06-08 00:00:00 TS 24.9750 133.900 75 955 tokyo main 739 713 OOOO__________ jtwc_wp WP042005 25.0000 133.900 TY 85 958 2 100 100 85 85 30 30 30 30 15 15 15 15 25.0000 133.900 5 75 955 9 60 60 2 210 150 0 25.0000 133.900 4 77 960 24.9000 133.900 T 80 955 100 6 23
2005148N06156 2005 30 WP MM NESAT 2005-06-08 03:00:00 TS 25.2767 134.046 main 713 698 PPPP__________ WP042005 25.3074 134.063 TY 82 960 1 100 100 85 85 30 30 30 30 15 15 15 15 25.2998 134.048 5 72 957 9 60 60 2 205 145 25.3072 134.040 4 72 965 25.1923 134.033 T 77 957 7 31
2005148N06156 2005 30 WP MM NESAT 2005-06-08 06:00:00 TS 25.5750 134.300 70 960 tokyo main 698 693 OOOO__________ jtwc_wp WP042005 25.6000 134.300 TY 80 963 1 100 100 85 85 30 30 30 30 15 15 15 15 25.6000 134.300 5 70 960 9 60 60 2 200 140 0 25.6000 134.300 4 68 970 25.5000 134.300 T 75 960 90 8 47
2005148N06156 2005 30 WP MM NESAT 2005-06-08 09:00:00 TS 25.8447 134.729 main 699 692 PPPP__________ WP042005 25.8501 134.628 TY 75 967 1 95 87 87 80 25 22 25 22 25.8928 134.727 5 67 965 9 55 55 2 200 130 25.8355 134.785 4 68 970 25.8004 134.777 T 72 962 10 56
2005148N06156 2005 30 WP MM NESAT 2005-06-08 12:00:00 TS 26.1250 135.200 65 970 tokyo main 697 685 OOOO__________ jtwc_wp WP042005 26.1000 135.000 TY 70 972 1 90 75 90 75 20 15 20 15 26.2000 135.200 5 65 970 9 50 50 2 200 120 0 26.1000 135.300 4 68 970 26.1000 135.300 T 70 965 80 10 51
2005148N06156 2005 30 WP MM NESAT 2005-06-08 15:00:00 TS 26.4473 135.555 main 691 667 PPPP__________ WP042005 26.3849 135.343 TY 70 972 1 90 75 82 75 22 17 20 17 26.5348 135.573 5 62 970 9 50 50 2 195 115 26.4772 135.630 4 66 972 26.3922 135.673 T 67 967 9 42
2005148N06156 2005 30 WP MM NESAT 2005-06-08 18:00:00 TS 26.8000 135.875 60 970 tokyo main 673 661 OOOO__________ jtwc_wp WP042005 26.7000 135.700 TY 70 972 1 90 75 75 75 25 20 20 20 26.9000 135.900 4 60 970 9 50 50 2 190 110 0 26.9000 135.900 4 64 975 26.7000 136.000 T 65 970 80 9 40
2005148N06156 2005 30 WP MM NESAT 2005-06-08 21:00:00 TS 27.1618 136.220 main 660 657 PPPP__________ WP042005 27.0351 136.108 TY 67 974 1 87 75 75 75 22 20 20 20 27.2924 136.208 4 60 972 9 45 45 2 185 105 27.2999 136.200 4 61 977 27.0200 136.365 T 62 972 10 39
2005148N06156 2005 30 WP MM NESAT 2005-06-09 00:00:00 TS 27.5500 136.550 60 975 tokyo main 651 610 OOOO__________ jtwc_wp WP042005 27.4000 136.500 TY 65 976 1 85 75 75 75 20 20 20 20 1006 190 15 27.7000 136.500 4 60 975 9 40 40 2 180 100 0 27.7000 136.500 3 58 980 27.4000 136.700 STS 60 975 10 34
2005148N06156 2005 30 WP MM NESAT 2005-06-09 03:00:00 TS 27.9786 136.843 main 610 571 PPPP__________ WP042005 27.7923 136.815 TY 62 978 0 92 87 77 77 25 25 22 22 1005 190 20 28.1149 136.800 4 60 975 9 40 40 2 180 100 28.1149 136.800 3 58 980 27.8923 136.958 STS 57 977 10 31
2005148N06156 2005 30 WP MM NESAT 2005-06-09 06:00:00 TS 28.4000 137.125 60 975 tokyo main 571 543 OOOO__________ jtwc_wp WP042005 28.2000 137.100 TS 60 980 0 100 100 80 80 30 30 25 25 1004 190 25 28.5000 137.100 4 60 975 9 40 40 2 180 100 0 28.5000 137.100 3 58 980 28.4000 137.200 STS 55 980 9 33
2005148N06156 2005 30 WP MM NESAT 2005-06-09 09:00:00 TS 28.7650 137.429 main 535 512 PPPP__________ WP042005 28.5999 137.400 TS 57 982 0 95 85 75 80 1004 190 27 28.8075 137.408 4 57 977 9 40 40 2 175 100 28.8150 137.408 3 56 982 28.8375 137.500 STS 52 982 9 37
2005148N06156 2005 30 WP MM NESAT 2005-06-09 12:00:00 TS 29.1000 137.725 55 980 tokyo main 512 488 OOOO__________ jtwc_wp WP042005 29.0000 137.700 TS 55 984 0 90 70 70 80 1004 190 30 29.1000 137.700 4 55 980 9 40 40 2 170 100 0 29.1000 137.700 3 54 985 29.2000 137.800 STS 50 984 8 37
2005148N06156 2005 30 WP MM NESAT 2005-06-09 15:00:00 TS 29.4230 137.990 main 492 471 PPPP__________ WP042005 29.3999 137.993 TS 52 985 0 90 70 70 80 1004 190 30 29.4499 137.958 4 52 982 9 2 170 100 29.3924 137.950 3 51 987 29.4499 138.058 STS 50 984 8 35
2005148N06156 2005 30 WP MM NESAT 2005-06-09 18:00:00 TS 29.7500 138.250 50 985 tokyo main 465 447 OOOO__________ jtwc_wp WP042005 29.8000 138.300 TS 50 987 0 90 70 70 80 1004 190 30 29.8000 138.200 4 50 985 0 2 170 100 0 29.7000 138.200 3 48 990 29.7000 138.300 STS 50 984 8 34
2005148N06156 2005 30 WP MM NESAT 2005-06-09 21:00:00 TS 30.1090 138.522 main 447 429 PPPP__________ WP042005 30.1998 138.620 TS 42 992 0 60 50 50 55 30.0863 138.440 4 47 987 0 2 165 100 30.0500 138.493 3 46 990 30.0999 138.535 STS 47 986 9 34
2005148N06156 2005 30 WP MM NESAT 2005-06-10 00:00:00 TS 30.4750 138.825 45 990 tokyo main 429 424 OOOO__________ jtwc_wp WP042005 30.6000 139.000 TS 35 997 0 30 30 30 30 30.4000 138.700 3 45 990 0 2 160 100 0 30.4000 138.800 2 44 990 30.5000 138.800 TS 45 988 9 37
2005148N06156 2005 30 WP MM NESAT 2005-06-10 03:00:00 TS 30.8082 139.134 45 990 tokyo main 424 395 POPP__________ WP042005 30.9772 139.449 TS 35 997 0 30 30 30 30 30.8000 139.000 3 45 990 0 2 160 100 0 30.6840 139.019 2 44 990 30.7717 139.068 TS 42 990 9 45
2005148N06156 2005 30 WP MM NESAT 2005-06-10 06:00:00 TS 31.1250 139.575 45 990 tokyo main 397 372 OOOO__________ jtwc_wp WP042005 31.4000 140.000 TS 35 997 0 30 30 30 30 31.1000 139.400 3 45 990 0 2 160 100 0 31.0000 139.400 2 44 990 31.0000 139.500 TS 40 992 12 56
2005148N06156 2005 30 WP MM NESAT 2005-06-10 09:00:00 TS 31.4925 140.332 45 990 tokyo main 372 349 POPP__________ WP042005 31.9198 140.655 TS 32 998 -1 31.4000 140.200 3 45 990 0 2 160 100 0 31.4363 140.196 2 41 992 31.2138 140.278 TS 40 992 16 59
2005148N06156 2005 30 WP MM NESAT 2005-06-10 12:00:00 TS 31.9500 141.175 45 992 tokyo main 345 324 OOOO__________ jtwc_wp WP042005 32.5000 141.400 TD 30 1000 -1 31.9000 141.100 3 45 992 0 2 160 100 0 31.9000 141.100 2 38 995 31.5000 141.100 TS 40 992 15 54
2005148N06156 2005 30 WP MM NESAT 2005-06-10 15:00:00 TS 32.3771 141.767 main 329 318 PPPP__________ WP042005 33.1361 142.133 TD 30 1000 -1 32.2427 141.711 3 42 993 0 2 160 100 32.2220 141.681 2 38 995 31.9074 141.544 TS 37 994 14 50
2005148N06156 2005 30 WP MM NESAT 2005-06-10 18:00:00 TS 32.8714 142.464 40 994 tokyo main 320 317 OOOO__________ jtwc_wp WP042005 33.7000 143.000 TD 30 1000 -1 32.7000 142.400 3 40 994 0 2 160 100 0 32.7000 142.400 2 38 995 32.5000 142.100 TS 35 996 20 52
2005148N06156 2005 30 WP MM NESAT 2005-06-10 21:00:00 TS 33.6021 143.651 main 346 345 PPPP__________ WP042005 34.0656 144.084 TD 27 1001 -1 33.5625 143.672 3 994 0 2 33.5625 143.672 2 33 996 33.2974 143.136 TS 35 996 27 53
2005148N06156 2005 30 WP MM NESAT 2005-06-11 00:00:00 TS 34.5125 145.050 994 tokyo main 403 400 OOOO__________ jtwc_wp WP042005 34.3000 145.300 TD 25 1002 -1 34.6000 145.100 2 994 0 0 0 34.6000 145.100 1 29 998 34.2000 144.500 TS 35 996 30 48
2005148N06156 2005 30 WP MM NESAT 2005-06-11 03:00:00 TS 35.6169 146.323 main 486 486 _PP___________ WP042005 TD -1 35.6169 146.323 2 995 0 0 35.6169 146.323 1 29 998 TS 28 42
2005148N06156 2005 30 WP MM NESAT 2005-06-11 06:00:00 TS 36.6000 147.400 996 tokyo main 552 _OO___________ 36.6000 147.400 2 996 0 0 0 36.6000 147.400 1 29 998 26 41

デジタル台風データ・検索

IBTrACS Databaseについて

本データベースは、米国NOAAが公開する1842年以降の世界の熱帯低気圧のベストトラックデータアーカイブInternational Best Track Archive for Climate Stewardship (IBTrACS)を、ウェブで閲覧しやすい形式に変換したものです。

最終更新日:2021-12-03